createdAt,value
2023-03-08T00:01:15.624Z,95802.72
2023-03-08T00:03:42.769Z,95798.75
2023-03-08T00:06:12.341Z,95798.03
2023-03-08T00:08:39.292Z,95805.44
2023-03-08T00:11:07.562Z,95805.31
2023-03-08T00:13:34.492Z,95794.34
2023-03-08T00:16:03.924Z,95797.06
2023-03-08T00:18:30.659Z,95790.22
2023-03-08T00:21:00.974Z,95793.47
2023-03-08T00:23:27.793Z,95796.19
2023-03-08T00:25:54.849Z,95789.34
2023-03-08T00:28:21.696Z,95773.09
2023-03-08T00:30:59.489Z,95777.78
2023-03-08T00:33:27.207Z,95755.41
2023-03-08T00:35:59.871Z,95747.84
2023-03-08T00:38:26.545Z,95744.56
2023-03-08T00:40:53.435Z,95746.56
2023-03-08T00:43:20.604Z,95751.28
2023-03-08T00:45:48.764Z,95744.41
2023-03-08T00:48:16.898Z,95744.41
2023-03-08T00:50:44.603Z,95751.13
2023-03-08T00:53:11.894Z,95747.69
2023-03-08T00:55:52.335Z,95754.41
2023-03-08T00:58:20.096Z,95741.44
2023-03-08T01:00:47.266Z,95716.34
2023-03-08T01:03:14.490Z,95712.19
2023-03-08T01:05:42.712Z,95701.34
2023-03-08T01:08:09.636Z,95689.78
2023-03-08T01:10:36.349Z,95693.78
2023-03-08T01:13:04.937Z,95687.66
2023-03-08T01:15:35.865Z,95704.50
2023-03-08T01:18:05.490Z,95714.63
2023-03-08T01:20:32.287Z,95720.63
2023-03-08T01:22:58.987Z,95720.63
2023-03-08T01:25:25.697Z,95715.06
2023-03-08T01:27:52.494Z,95704.09
2023-03-08T01:30:19.287Z,95703.94
2023-03-08T01:32:45.980Z,95689.69
2023-03-08T01:35:12.615Z,95680.13
2023-03-08T01:37:39.270Z,95669.31
2023-03-08T01:40:06.904Z,95678.13
2023-03-08T01:42:33.657Z,95667.19
2023-03-08T01:45:05.532Z,95665.88
2023-03-08T01:47:33.588Z,95656.34
2023-03-08T01:50:12.175Z,95644.06
2023-03-08T01:52:49.000Z,95643.22
2023-03-08T01:55:16.673Z,95639.22
2023-03-08T01:57:50.126Z,95628.97
2023-03-08T02:00:24.370Z,95622.13
2023-03-08T02:02:59.996Z,95632.25
2023-03-08T02:05:28.335Z,95622.13
2023-03-08T02:08:01.077Z,95604.44
2023-03-08T02:10:32.397Z,95611.28
2023-03-08T02:12:59.123Z,95609.16
2023-03-08T02:15:25.796Z,95600.31
2023-03-08T02:17:55.938Z,95598.31
2023-03-08T02:20:30.768Z,95592.88
2023-03-08T02:23:13.953Z,95570.38
2023-03-08T02:25:42.890Z,95571.69
2023-03-08T02:28:09.527Z,95558.84
2023-03-08T02:30:37.777Z,95572.97
2023-03-08T02:33:04.479Z,95560.84
2023-03-08T02:35:32.127Z,95566.25
2023-03-08T02:37:58.807Z,95567.66
2023-03-08T02:40:25.630Z,95560.84
2023-03-08T02:42:53.608Z,95557.53
2023-03-08T02:45:20.379Z,95554.13
2023-03-08T02:47:47.010Z,95550.72
2023-03-08T02:50:13.853Z,95531.03
2023-03-08T02:52:40.510Z,95524.34
2023-03-08T02:55:08.079Z,95518.91
2023-03-08T02:57:34.773Z,95506.66
2023-03-08T03:00:04.077Z,95508.78
2023-03-08T03:02:33.027Z,95498.66
2023-03-08T03:04:59.645Z,95496.66
2023-03-08T03:07:28.153Z,95477.69
2023-03-08T03:09:55.360Z,95477.09
2023-03-08T03:12:22.097Z,95477.84
2023-03-08T03:14:49.000Z,95470.97
2023-03-08T03:17:16.170Z,95457.44
2023-03-08T03:19:43.027Z,95456.16
2023-03-08T03:22:09.722Z,95461.59
2023-03-08T03:24:37.613Z,95452.72
2023-03-08T03:27:06.094Z,95445.34
2023-03-08T03:29:37.568Z,95455.44
2023-03-08T03:32:14.555Z,95463.00
2023-03-08T03:34:41.430Z,95472.44
2023-03-08T03:37:08.585Z,95464.31
2023-03-08T03:39:39.880Z,95465.00
2023-03-08T03:42:09.980Z,95458.28
2023-03-08T03:44:41.114Z,95465.72
2023-03-08T03:47:11.175Z,95471.84
2023-03-08T03:49:37.910Z,95459.44
2023-03-08T03:52:04.774Z,95447.19
2023-03-08T03:54:38.336Z,95453.91
2023-03-08T03:57:05.166Z,95458.03
2023-03-08T03:59:36.079Z,95445.06
2023-03-08T04:02:03.440Z,95440.81
2023-03-08T04:04:38.622Z,95424.00
2023-03-08T04:07:05.781Z,95426.09
2023-03-08T04:09:37.985Z,95426.81
2023-03-08T04:12:12.374Z,95430.94
2023-03-08T04:14:40.473Z,95429.66
2023-03-08T04:17:08.867Z,95426.38
2023-03-08T04:19:50.361Z,95413.53
2023-03-08T04:22:18.321Z,95403.41
2023-03-08T04:24:50.928Z,95406.81
2023-03-08T04:27:23.811Z,95401.41
2023-03-08T04:29:50.634Z,95395.41
2023-03-08T04:32:17.470Z,95387.97
2023-03-08T04:34:48.715Z,95380.69
2023-03-08T04:37:19.146Z,95385.53
2023-03-08T04:39:49.625Z,95365.97
2023-03-08T04:42:17.489Z,95362.13
2023-03-08T04:44:45.444Z,95353.41
2023-03-08T04:47:14.460Z,95353.53
2023-03-08T04:49:45.649Z,95347.53
2023-03-08T04:52:13.011Z,95338.81
2023-03-08T04:54:41.123Z,95341.06
2023-03-08T04:57:16.321Z,95322.09
2023-03-08T04:59:44.008Z,95323.63
2023-03-08T05:02:11.618Z,95323.78
2023-03-08T05:04:38.808Z,95321.75
2023-03-08T05:07:06.506Z,95307.63
2023-03-08T05:09:35.746Z,95302.91
2023-03-08T05:12:02.475Z,95299.63
2023-03-08T05:14:49.688Z,95305.28
2023-03-08T05:17:16.813Z,95301.28
2023-03-08T05:19:44.693Z,95296.00
2023-03-08T05:22:13.507Z,95297.41
2023-03-08T05:24:46.416Z,95281.84
2023-03-08T05:27:14.186Z,95279.28
2023-03-08T05:29:41.304Z,95276.66
2023-03-08T05:32:12.302Z,95278.94
2023-03-08T05:34:40.106Z,95258.66
2023-03-08T05:37:10.250Z,95251.94
2023-03-08T05:39:38.762Z,95236.47
2023-03-08T05:42:14.246Z,95234.50
2023-03-08T05:44:43.630Z,95246.03
2023-03-08T05:47:12.572Z,95245.44
2023-03-08T05:49:39.805Z,95240.84
2023-03-08T05:52:07.545Z,95237.69
2023-03-08T05:54:35.308Z,95239.78
2023-03-08T05:57:07.432Z,95240.38
2023-03-08T05:59:35.336Z,95232.97
2023-03-08T06:02:03.936Z,95228.94
2023-03-08T06:04:52.369Z,95229.66
2023-03-08T06:07:21.656Z,95212.81
2023-03-08T06:09:55.426Z,95200.78
2023-03-08T06:12:23.454Z,95198.19
2023-03-08T06:14:54.277Z,95184.75
2023-03-08T06:17:23.674Z,95181.44
2023-03-08T06:19:51.632Z,95175.44
2023-03-08T06:22:18.843Z,95171.66
2023-03-08T06:24:49.627Z,95164.94
2023-03-08T06:27:20.934Z,95158.06
2023-03-08T06:29:50.917Z,95151.97
2023-03-08T06:32:18.039Z,95152.63
2023-03-08T06:34:47.079Z,95137.56
2023-03-08T06:37:14.505Z,95130.59
2023-03-08T06:39:41.172Z,95133.06
2023-03-08T06:42:08.136Z,95119.53
2023-03-08T06:44:35.472Z,95107.38
2023-03-08T06:47:02.107Z,95102.41
2023-03-08T06:49:28.714Z,95109.81
2023-03-08T06:51:55.487Z,95096.16
2023-03-08T06:54:24.216Z,95095.75
2023-03-08T06:56:51.207Z,95079.94
2023-03-08T06:59:17.856Z,95068.16
2023-03-08T07:01:44.642Z,95073.38
2023-03-08T07:04:11.409Z,95087.97
2023-03-08T07:06:38.161Z,95067.50
2023-03-08T07:09:04.762Z,95061.13
2023-03-08T07:11:33.952Z,95070.91
2023-03-08T07:14:00.575Z,95039.53
2023-03-08T07:16:27.280Z,95029.81
2023-03-08T07:18:53.888Z,95026.91
2023-03-08T07:21:20.610Z,95027.88
2023-03-08T07:23:47.206Z,95019.31
2023-03-08T07:26:13.826Z,95025.63
2023-03-08T07:28:40.724Z,95010.75
2023-03-08T07:31:11.165Z,95009.72
2023-03-08T07:33:37.947Z,95016.44
2023-03-08T07:36:04.929Z,95021.06
2023-03-08T07:38:31.657Z,95018.81
2023-03-08T07:40:58.289Z,95041.09
2023-03-08T07:43:25.245Z,95033.19
2023-03-08T07:45:59.333Z,95041.13
2023-03-08T07:48:26.090Z,95056.75
2023-03-08T07:50:52.734Z,95047.69
2023-03-08T07:53:19.452Z,95040.03
2023-03-08T07:55:46.136Z,95033.09
2023-03-08T07:58:13.034Z,95047.69
2023-03-08T08:00:39.697Z,95044.97
2023-03-08T08:03:06.384Z,95059.47
2023-03-08T08:05:35.520Z,95049.59
2023-03-08T08:08:02.385Z,95059.75
2023-03-08T08:10:29.568Z,95035.19
2023-03-08T08:12:56.206Z,95051.44
2023-03-08T08:15:25.257Z,95056.25
2023-03-08T08:17:52.703Z,95061.44
2023-03-08T08:20:19.304Z,95039.19
2023-03-08T08:22:46.018Z,95063.69
2023-03-08T08:25:12.686Z,95055.09
2023-03-08T08:27:39.557Z,95077.13
2023-03-08T08:30:07.028Z,95011.91
2023-03-08T08:32:35.375Z,95079.28
2023-03-08T08:35:02.247Z,95055.59
2023-03-08T08:37:30.709Z,95038.16
2023-03-08T08:39:57.642Z,95025.38
2023-03-08T08:42:24.554Z,95059.78
2023-03-08T08:44:53.136Z,95051.84
2023-03-08T08:47:19.922Z,95010.72
2023-03-08T08:49:46.504Z,95078.97
2023-03-08T08:52:13.142Z,95036.31
2023-03-08T08:54:40.141Z,95073.13
2023-03-08T08:57:07.252Z,95056.91
2023-03-08T08:59:34.146Z,95088.00
2023-03-08T09:02:00.864Z,95084.25
2023-03-08T09:04:27.440Z,95088.38
2023-03-08T09:06:54.307Z,95104.06
2023-03-08T09:09:21.029Z,95117.94
2023-03-08T09:11:54.787Z,95110.66
2023-03-08T09:14:22.599Z,95131.03
2023-03-08T09:16:49.384Z,95089.75
2023-03-08T09:19:16.247Z,95096.13
2023-03-08T09:21:42.941Z,95096.53
2023-03-08T09:24:11.417Z,95118.19
2023-03-08T09:26:38.206Z,95111.41
2023-03-08T09:29:05.689Z,95098.38
2023-03-08T09:31:36.977Z,95119.53
2023-03-08T09:34:09.485Z,95115.84
2023-03-08T09:36:37.323Z,95109.31
2023-03-08T09:39:04.129Z,95117.09
2023-03-08T09:41:52.976Z,95108.03
2023-03-08T09:44:35.077Z,95129.97
2023-03-08T09:47:16.372Z,95108.91
2023-03-08T09:49:45.513Z,95115.09
2023-03-08T09:52:35.375Z,95105.69
2023-03-08T09:55:03.376Z,95102.22
2023-03-08T09:57:47.021Z,95128.56
2023-03-08T10:00:23.602Z,95094.63
2023-03-08T10:03:15.339Z,95097.06
2023-03-08T10:05:42.023Z,95129.00
2023-03-08T10:08:14.459Z,95101.06
2023-03-08T10:10:47.147Z,95130.25
2023-03-08T10:13:24.819Z,95105.47
2023-03-08T10:15:53.016Z,95112.22
2023-03-08T10:18:26.717Z,95112.84
2023-03-08T10:20:53.396Z,95107.06
2023-03-08T10:23:20.704Z,95111.59
2023-03-08T10:25:47.843Z,95100.59
2023-03-08T10:28:18.961Z,95111.50
2023-03-08T10:30:48.519Z,95109.31
2023-03-08T10:33:15.623Z,95116.81
2023-03-08T10:35:45.047Z,95106.16
2023-03-08T10:38:17.621Z,95116.47
2023-03-08T10:40:44.264Z,95110.28
2023-03-08T10:43:17.042Z,95120.59
2023-03-08T10:45:43.637Z,95110.63
2023-03-08T10:48:17.161Z,95128.47
2023-03-08T10:50:43.809Z,95135.22
2023-03-08T10:53:11.481Z,95135.50
2023-03-08T10:55:47.222Z,95133.09
2023-03-08T10:58:26.099Z,95127.66
2023-03-08T11:00:53.154Z,95120.72
2023-03-08T11:03:20.347Z,95130.69
2023-03-08T11:05:54.396Z,95135.22
2023-03-08T11:08:25.493Z,95140.75
2023-03-08T11:11:01.875Z,95128.25
2023-03-08T11:13:32.904Z,95153.38
2023-03-08T11:16:03.110Z,95156.97
2023-03-08T11:18:41.991Z,95137.72
2023-03-08T11:21:43.991Z,95169.38
2023-03-08T11:24:22.505Z,95142.78
2023-03-08T11:27:01.808Z,95159.81
2023-03-08T11:29:40.663Z,95173.38
2023-03-08T11:32:16.265Z,95174.69
2023-03-08T11:34:43.040Z,95171.56
2023-03-08T11:37:21.865Z,95177.00
2023-03-08T11:39:53.808Z,95165.00
2023-03-08T11:42:41.543Z,95186.19
2023-03-08T11:45:08.293Z,95187.53
2023-03-08T11:48:12.325Z,95155.66
2023-03-08T11:50:41.382Z,95174.63
2023-03-08T11:53:26.509Z,95179.44
2023-03-08T11:55:59.010Z,95177.09
2023-03-08T11:58:33.535Z,95160.19
2023-03-08T12:01:01.300Z,95168.25
2023-03-08T12:03:33.494Z,95158.94
2023-03-08T12:06:01.841Z,95160.13
2023-03-08T12:08:35.354Z,95137.84
2023-03-08T12:11:03.394Z,95165.28
2023-03-08T12:13:34.059Z,95148.16
2023-03-08T12:16:17.714Z,95155.16
2023-03-08T12:19:03.098Z,95125.53
2023-03-08T12:21:43.578Z,95132.59
2023-03-08T12:24:16.368Z,95147.56
2023-03-08T12:27:05.980Z,95140.19
2023-03-08T12:29:39.799Z,95127.25
2023-03-08T12:32:06.555Z,95140.09
2023-03-08T12:34:37.417Z,95139.84
2023-03-08T12:37:04.126Z,95127.63
2023-03-08T12:39:31.741Z,95124.94
2023-03-08T12:41:59.461Z,95133.50
2023-03-08T12:44:26.747Z,95142.97
2023-03-08T12:47:02.910Z,95125.13
2023-03-08T12:49:32.220Z,95123.59
2023-03-08T12:52:01.828Z,95125.88
2023-03-08T12:54:29.428Z,95122.69
2023-03-08T12:56:55.913Z,95095.47
2023-03-08T12:59:22.435Z,95128.97
2023-03-08T13:01:57.966Z,95128.03
2023-03-08T13:04:50.822Z,95100.84
2023-03-08T13:07:17.397Z,95113.38
2023-03-08T13:09:46.917Z,95110.13
2023-03-08T13:12:18.970Z,95117.03
2023-03-08T13:14:46.609Z,95118.31
2023-03-08T13:17:25.270Z,95106.72
2023-03-08T13:19:51.935Z,95102.66
2023-03-08T13:22:20.684Z,95102.53
2023-03-08T13:24:48.583Z,95105.28
2023-03-08T13:27:27.521Z,95092.16
2023-03-08T13:29:55.141Z,95108.16
2023-03-08T13:32:21.964Z,95103.31
2023-03-08T13:34:58.451Z,95099.50
2023-03-08T13:37:26.024Z,95106.25
2023-03-08T13:39:56.111Z,95089.25
2023-03-08T13:42:24.935Z,95092.44
2023-03-08T13:44:52.397Z,95084.94
2023-03-08T13:47:18.931Z,95080.91
2023-03-08T13:49:46.096Z,95076.69
2023-03-08T13:52:32.909Z,95076.63
2023-03-08T13:55:01.772Z,95069.41
2023-03-08T13:57:29.262Z,95077.47
2023-03-08T13:59:56.922Z,95080.50
2023-03-08T14:02:27.498Z,95068.44
2023-03-08T14:04:54.222Z,95089.66
2023-03-08T14:07:28.398Z,95072.34
2023-03-08T14:09:55.174Z,95070.22
2023-03-08T14:12:22.565Z,95049.97
2023-03-08T14:15:07.495Z,95076.09
2023-03-08T14:17:34.631Z,95065.41
2023-03-08T14:20:02.179Z,95058.75
2023-03-08T14:22:39.093Z,95045.66
2023-03-08T14:25:07.260Z,95061.38
2023-03-08T14:27:45.184Z,95059.38
2023-03-08T14:30:19.625Z,95058.50
2023-03-08T14:33:00.271Z,95061.69
2023-03-08T14:35:27.749Z,95045.72
2023-03-08T14:37:58.495Z,95036.03
2023-03-08T14:40:32.312Z,95034.16
2023-03-08T14:43:04.572Z,95042.50
2023-03-08T14:45:31.391Z,95005.56
2023-03-08T14:47:58.682Z,95019.03
2023-03-08T14:50:30.795Z,95011.19
2023-03-08T14:52:58.064Z,95010.78
2023-03-08T14:55:26.750Z,95004.25
2023-03-08T14:57:56.432Z,95005.00
2023-03-08T15:00:24.758Z,95020.66
2023-03-08T15:02:51.278Z,95010.44
2023-03-08T15:05:28.367Z,94995.31
2023-03-08T15:07:55.945Z,95003.94
2023-03-08T15:10:37.229Z,95010.31
2023-03-08T15:13:04.580Z,95003.19
2023-03-08T15:15:31.108Z,95000.44
2023-03-08T15:17:57.721Z,95009.88
2023-03-08T15:20:25.145Z,94997.41
2023-03-08T15:22:52.963Z,94988.25
2023-03-08T15:25:24.011Z,94989.41
2023-03-08T15:27:50.640Z,95000.22
2023-03-08T15:30:18.736Z,94998.19
2023-03-08T15:32:45.412Z,94982.03
2023-03-08T15:35:12.340Z,95000.84
2023-03-08T15:37:39.238Z,94994.63
2023-03-08T15:40:09.481Z,94991.47
2023-03-08T15:42:36.116Z,94962.28
2023-03-08T15:45:02.548Z,94966.06
2023-03-08T15:47:29.097Z,94942.94
2023-03-08T15:49:55.599Z,94930.03
2023-03-08T15:52:24.665Z,94950.47
2023-03-08T15:54:52.720Z,94953.78
2023-03-08T15:57:19.313Z,94949.19
2023-03-08T15:59:45.883Z,94929.88
2023-03-08T16:02:16.398Z,94939.16
2023-03-08T16:04:45.752Z,94941.03
2023-03-08T16:07:13.526Z,94961.50
2023-03-08T16:09:40.312Z,94963.34
2023-03-08T16:12:06.966Z,94957.47
2023-03-08T16:14:33.927Z,94945.56
2023-03-08T16:17:00.490Z,94944.84
2023-03-08T16:19:30.652Z,94948.72
2023-03-08T16:21:57.173Z,94944.06
2023-03-08T16:24:23.688Z,94939.09
2023-03-08T16:26:50.287Z,94945.28
2023-03-08T16:29:16.966Z,94942.09
2023-03-08T16:31:43.638Z,94935.22
2023-03-08T16:34:10.721Z,94936.16
2023-03-08T16:36:37.421Z,94934.06
2023-03-08T16:39:05.597Z,94904.53
2023-03-08T16:41:35.788Z,94917.22
2023-03-08T16:44:02.325Z,94916.72
2023-03-08T16:46:29.209Z,94911.44
2023-03-08T16:48:56.108Z,94919.50
2023-03-08T16:51:27.326Z,94923.84
2023-03-08T16:53:54.091Z,94908.34
2023-03-08T16:56:29.707Z,94912.03
2023-03-08T16:58:57.692Z,94908.72
2023-03-08T17:01:24.562Z,94910.66
2023-03-08T17:03:51.453Z,94902.94
2023-03-08T17:06:19.090Z,94918.47
2023-03-08T17:08:45.947Z,94930.88
2023-03-08T17:11:15.569Z,94931.38
2023-03-08T17:13:42.235Z,94900.22
2023-03-08T17:16:10.987Z,94903.28
2023-03-08T17:18:37.496Z,94899.84
2023-03-08T17:21:05.334Z,94915.75
2023-03-08T17:23:31.870Z,94926.34
2023-03-08T17:25:58.604Z,94915.34
2023-03-08T17:28:25.123Z,94920.50
2023-03-08T17:30:51.841Z,94942.84
2023-03-08T17:33:18.542Z,94919.63
2023-03-08T17:35:45.375Z,94941.97
2023-03-08T17:38:12.239Z,94958.16
2023-03-08T17:40:40.328Z,94943.72
2023-03-08T17:43:07.006Z,94962.44
2023-03-08T17:45:33.685Z,94961.38
2023-03-08T17:48:02.721Z,94957.50
2023-03-08T17:50:32.208Z,94988.53
2023-03-08T17:52:58.889Z,94944.22
2023-03-08T17:55:25.724Z,94987.66
2023-03-08T17:57:52.538Z,94948.63
2023-03-08T18:00:19.753Z,94929.88
2023-03-08T18:02:46.574Z,94977.34
2023-03-08T18:05:13.486Z,94981.81
2023-03-08T18:07:41.886Z,94968.53
2023-03-08T18:10:11.032Z,94976.25
2023-03-08T18:12:37.725Z,94981.31
2023-03-08T18:15:04.866Z,94956.94
2023-03-08T18:17:34.136Z,94985.09
2023-03-08T18:20:01.388Z,94975.75
2023-03-08T18:22:28.024Z,94996.31
2023-03-08T18:24:54.577Z,94967.78
2023-03-08T18:27:21.288Z,94977.47
2023-03-08T18:29:48.042Z,94974.13
2023-03-08T18:32:14.749Z,94981.13
2023-03-08T18:34:41.621Z,94983.22
2023-03-08T18:37:08.325Z,94982.69
2023-03-08T18:39:35.042Z,95000.53
2023-03-08T18:42:02.272Z,94986.28
2023-03-08T18:44:28.924Z,94990.50
2023-03-08T18:46:55.709Z,94989.88
2023-03-08T18:49:22.555Z,95005.00
2023-03-08T18:51:49.438Z,94987.28
2023-03-08T18:54:17.434Z,95008.53
2023-03-08T18:56:44.675Z,94989.47
2023-03-08T18:59:13.652Z,95022.31
2023-03-08T19:01:40.792Z,94982.84
2023-03-08T19:04:08.153Z,94994.47
2023-03-08T19:06:36.112Z,95001.44
2023-03-08T19:09:10.147Z,95011.72
2023-03-08T19:11:36.998Z,94985.19
2023-03-08T19:14:03.676Z,95009.84
2023-03-08T19:16:32.546Z,95009.22
2023-03-08T19:19:05.535Z,95009.28
2023-03-08T19:21:38.286Z,95009.38
2023-03-08T19:24:05.198Z,95016.94
2023-03-08T19:26:37.351Z,95027.94
2023-03-08T19:29:16.927Z,95015.06
2023-03-08T19:31:46.337Z,95025.28
2023-03-08T19:34:13.827Z,95015.84
2023-03-08T19:36:41.835Z,95022.72
2023-03-08T19:39:11.116Z,95027.56
2023-03-08T19:41:37.882Z,95025.50
2023-03-08T19:44:07.061Z,95025.59
2023-03-08T19:46:35.309Z,95046.13
2023-03-08T19:49:02.239Z,95021.59
2023-03-08T19:51:28.867Z,95014.75
2023-03-08T19:53:55.869Z,95034.56
2023-03-08T19:56:24.454Z,95040.03
2023-03-08T19:58:56.849Z,95012.09
2023-03-08T20:01:24.075Z,95023.81
2023-03-08T20:03:50.896Z,95043.00
2023-03-08T20:06:47.544Z,95040.25
2023-03-08T20:09:21.526Z,95022.53
2023-03-08T20:11:57.460Z,95022.53
2023-03-08T20:14:27.052Z,95014.34
2023-03-08T20:16:54.150Z,95048.53
2023-03-08T20:19:21.052Z,95029.41
2023-03-08T20:21:48.369Z,95014.34
2023-03-08T20:24:18.254Z,95025.34
2023-03-08T20:26:45.528Z,95031.53
2023-03-08T20:29:12.167Z,95026.13
2023-03-08T20:31:38.928Z,95025.50
2023-03-08T20:34:05.570Z,95021.28
2023-03-08T20:36:32.360Z,95018.56
2023-03-08T20:38:59.956Z,95032.28
2023-03-08T20:41:27.911Z,95057.66
2023-03-08T20:43:57.590Z,95053.59
2023-03-08T20:46:27.529Z,95021.50
2023-03-08T20:48:54.418Z,95035.25
2023-03-08T20:51:22.231Z,95057.19
2023-03-08T20:53:52.696Z,95029.22
2023-03-08T20:56:21.449Z,95039.53
2023-03-08T20:58:48.429Z,95028.59
2023-03-08T21:01:33.361Z,95033.47
2023-03-08T21:04:00.269Z,95034.84
2023-03-08T21:06:30.739Z,95045.09
2023-03-08T21:08:57.560Z,95047.19
2023-03-08T21:11:24.199Z,95028.00
2023-03-08T21:13:51.779Z,95010.25
2023-03-08T21:16:20.762Z,95002.06
2023-03-08T21:18:51.166Z,94996.66
2023-03-08T21:21:30.147Z,95006.97
2023-03-08T21:23:58.639Z,95030.25
2023-03-08T21:26:26.659Z,95027.50
2023-03-08T21:28:55.851Z,94989.31
2023-03-08T21:31:23.550Z,95005.06
2023-03-08T21:33:50.203Z,94987.34
2023-03-08T21:36:17.288Z,94982.59
2023-03-08T21:38:44.328Z,94960.00
2023-03-08T21:41:22.014Z,94971.72
2023-03-08T21:43:48.809Z,94969.00
2023-03-08T21:46:16.004Z,94952.59
2023-03-08T21:48:42.702Z,94964.22
2023-03-08T21:51:10.462Z,94949.88
2023-03-08T21:53:37.633Z,94947.81
2023-03-08T21:56:08.914Z,94954.00
2023-03-08T21:58:36.633Z,94937.72
2023-03-08T22:01:03.877Z,94944.47
2023-03-08T22:03:31.344Z,94925.34
2023-03-08T22:05:58.261Z,94909.56
2023-03-08T22:08:25.208Z,94891.81
2023-03-08T22:10:52.867Z,94885.78
2023-03-08T22:13:19.797Z,94882.41
2023-03-08T22:15:46.546Z,94872.16
2023-03-08T22:18:13.252Z,94851.00
2023-03-08T22:20:39.891Z,94855.13
2023-03-08T22:23:06.553Z,94857.84
2023-03-08T22:25:33.312Z,94850.34
2023-03-08T22:28:00.318Z,94846.28
2023-03-08T22:30:27.044Z,94856.53
2023-03-08T22:32:54.468Z,94824.38
2023-03-08T22:35:22.176Z,94857.84
2023-03-08T22:37:49.378Z,94848.25
2023-03-08T22:40:18.374Z,94869.44
2023-03-08T22:42:46.172Z,94874.25
2023-03-08T22:45:13.582Z,94882.47
2023-03-08T22:47:40.331Z,94890.66
2023-03-08T22:50:07.328Z,94913.91
2023-03-08T22:52:34.029Z,94926.28
2023-03-08T22:55:00.795Z,94957.09
2023-03-08T22:57:27.455Z,95003.63
2023-03-08T22:59:58.394Z,94973.56
2023-03-08T23:02:25.501Z,94924.84
2023-03-08T23:04:52.105Z,94968.75
2023-03-08T23:07:18.868Z,94976.88
2023-03-08T23:09:45.507Z,94964.59
2023-03-08T23:12:12.228Z,94914.75
2023-03-08T23:14:38.874Z,94928.53
2023-03-08T23:17:05.765Z,94946.97
2023-03-08T23:19:32.330Z,94956.56
2023-03-08T23:21:59.048Z,94970.13
